| time (UTC) | temp F | wind direction | speed MPH | gust MPH | rain 1hr in | rain 24hr in | rain mn in | humidity % | barometer mb |
| 20260904014504 | 55 | 117 | 19.0 | 28.0 | 0.16 | 0.46 | 0.46 | 55 | 1016.8 |
| 20260904013003 | 55 | 163 | 9.0 | 15.0 | 0.15 | 0.37 | 0.37 | 49 | 1016.2 |
| 20260904011525 | 56 | 235 | 7.0 | 16.0 | 0.19 | 0.35 | 0.35 | 44 | 1015.5 |
| 20260904010003 | 57 | 165 | 10.0 | 20.0 | 0.19 | 0.33 | 0.33 | 42 | 1014.9 |
| 20260904004503 | 60 | 137 | 23.0 | 30.0 | 0.17 | 0.35 | 0.30 | 53 | 1014.9 |
| 20260904003004 | 60 | 76 | 14.0 | 28.0 | 0.08 | 0.29 | 0.21 | 45 | 1014.1 |
| 20260904001524 | 60 | 51 | 16.0 | 23.0 | 0.03 | 0.26 | 0.16 | 40 | 1013.3 |
| 20260904000024 | 61 | 52 | 8.0 | 17.0 | 0.00 | 0.29 | 0.13 | 35 | 1012.6 |
| 20260903234525 | 62 | 163 | 4.0 | 13.0 | 0.00 | 0.32 | 0.13 | 33 | 1012.2 |
| 20260903233003 | 62 | 157 | 3.0 | 12.0 | 0.00 | 0.34 | 0.13 | 30 | 1011.3 |
| 20260903231504 | 65 | 87 | 21.0 | 28.0 | 0.00 | 0.41 | 0.13 | 38 | 1010.8 |
| 20260903230024 | 64 | 122 | 8.0 | 16.0 | 0.00 | 0.46 | 0.13 | 29 | 1010.0 |
| 20260903224504 | 65 | 215 | 9.0 | 18.0 | 0.00 | 0.46 | 0.13 | 28 | 1009.2 |
| 20260903223004 | 66 | 248 | 21.0 | 34.0 | 0.00 | 0.46 | 0.13 | 31 | 1008.3 |
| 20260903221504 | 68 | 260 | 19.0 | 37.0 | 0.00 | 0.46 | 0.13 | 39 | 1008.3 |
| 20260903220004 | 68 | 255 | 22.0 | 36.0 | 0.00 | 0.46 | 0.13 | 35 | 1007.3 |
| 20260903214525 | 69 | 230 | 27.0 | 37.0 | 0.00 | 0.46 | 0.13 | 37 | 1006.7 |
| 20260903213004 | 69 | 148 | 26.0 | 39.0 | 0.00 | 0.46 | 0.13 | 35 | 1005.7 |
| 20260903211504 | 69 | 166 | 14.0 | 32.0 | 0.00 | 0.46 | 0.13 | 31 | 1005.1 |
| 20260903210004 | 69 | 212 | 16.0 | 29.0 | 0.00 | 0.46 | 0.13 | 31 | 1004.3 |
| 20260903204504 | 69 | 260 | 18.0 | 28.0 | 0.00 | 0.46 | 0.13 | 30 | 1003.4 |
| 20260903203004 | 70 | 199 | 30.0 | 41.0 | 0.00 | 0.46 | 0.13 | 34 | 1002.5 |
| 20260903201524 | 69 | 202 | 22.0 | 36.0 | 0.00 | 0.46 | 0.13 | 30 | 1001.7 |
| 20260903200025 | 69 | 135 | 23.0 | 30.0 | 0.00 | 0.46 | 0.13 | 33 | 1001.1 |
| 20260903194504 | 68 | 141 | 15.0 | 27.0 | 0.00 | 0.46 | 0.13 | 26 | 1000.0 |
| 20260903193004 | 68 | 119 | 15.0 | 32.0 | 0.00 | 0.46 | 0.13 | 32 | 999.6 |
| 20260903191504 | 67 | 109 | 14.0 | 20.0 | 0.00 | 0.46 | 0.13 | 29 | 998.7 |
| 20260903190024 | 66 | 129 | 8.0 | 20.0 | 0.00 | 0.46 | 0.13 | 24 | 997.6 |
| 20260903184503 | 66 | 265 | 7.0 | 21.0 | 0.00 | 0.46 | 0.13 | 27 | 997.0 |
| 20260903183003 | 67 | 255 | 27.0 | 45.0 | 0.00 | 0.46 | 0.13 | 36 | 996.4 |
| 20260903181524 | 66 | 231 | 22.0 | 32.0 | 0.00 | 0.46 | 0.13 | 37 | 995.8 |
| 20260903180025 | 66 | 117 | 30.0 | 44.0 | 0.00 | 0.46 | 0.13 | 39 | 994.9 |
| 20260903174504 | 63 | 183 | 2.0 | 11.0 | 0.00 | 0.46 | 0.13 | 30 | 994.3 |
| 20260903173003 | 63 | 212 | 23.0 | 41.0 | 0.00 | 0.46 | 0.13 | 36 | 993.4 |
| 20260903171503 | 61 | 291 | 15.0 | 30.0 | 0.00 | 0.46 | 0.13 | 34 | 992.7 |
| 20260903170024 | 63 | 264 | 23.0 | 35.0 | 0.00 | 0.46 | 0.13 | 48 | 992.6 |
| 20260903164503 | 62 | 232 | 25.0 | 34.0 | 0.00 | 0.46 | 0.13 | 51 | 992.1 |
| 20260903163024 | 59 | 200 | 15.0 | 27.0 | 0.00 | 0.46 | 0.13 | 42 | 991.2 |
| 20260903161524 | 59 | 146 | 10.0 | 20.0 | 0.00 | 0.46 | 0.13 | 46 | 990.9 |
| 20260903160003 | 57 | 196 | 15.0 | 33.0 | 0.00 | 0.46 | 0.13 | 47 | 990.3 |
| 20260903154503 | 57 | 218 | 9.0 | 22.0 | 0.00 | 0.46 | 0.13 | 53 | 990.1 |
| 20260903153025 | 56 | 204 | 20.0 | 30.0 | 0.00 | 0.46 | 0.13 | 56 | 989.3 |
| 20260903151525 | 54 | 240 | 14.0 | 25.0 | 0.00 | 0.46 | 0.13 | 51 | 988.8 |
| 20260903150024 | 53 | 188 | 12.0 | 18.0 | 0.00 | 0.46 | 0.13 | 57 | 988.6 |
| 20260903144503 | 51 | 297 | 6.0 | 19.0 | 0.07 | 0.46 | 0.13 | 53 | 988.0 |
| 20260903143004 | 51 | 287 | 16.0 | 22.0 | 0.12 | 0.46 | 0.13 | 64 | 988.0 |
| 20260903141503 | 50 | 213 | 11.0 | 16.0 | 0.13 | 0.46 | 0.13 | 66 | 987.9 |
| 20260903140024 | 48 | 193 | 12.0 | 20.0 | 0.13 | 0.46 | 0.13 | 60 | 986.8 |
| 20260903134503 | 46 | 143 | 3.0 | 8.0 | 0.06 | 0.39 | 0.06 | 62 | 986.9 |
| 20260903133004 | 46 | 151 | 4.0 | 13.0 | 0.02 | 0.35 | 0.02 | 69 | 987.2 |
| 20260903024503 | 49 | 223 | 7.0 | 12.0 | 0.00 | 0.33 | 0.33 | 60 | 991.1 |